sensor_id;sensor_type;location;lat;lon;timestamp;P1;durP1;ratioP1;P2;durP2;ratioP2
69573;SDS011;62840;52.366;5.980;2023-07-22T00:02:18;6.28;;;2.63;;
69573;SDS011;62840;52.366;5.980;2023-07-22T00:04:46;6.17;;;2.70;;
69573;SDS011;62840;52.366;5.980;2023-07-22T00:07:12;6.68;;;2.60;;
69573;SDS011;62840;52.366;5.980;2023-07-22T00:09:37;10.00;;;2.90;;
69573;SDS011;62840;52.366;5.980;2023-07-22T00:12:04;7.43;;;2.90;;
69573;SDS011;62840;52.366;5.980;2023-07-22T00:14:31;6.82;;;2.65;;
69573;SDS011;62840;52.366;5.980;2023-07-22T00:16:56;6.55;;;2.50;;
69573;SDS011;62840;52.366;5.980;2023-07-22T00:19:22;7.35;;;2.60;;
69573;SDS011;62840;52.366;5.980;2023-07-22T00:21:50;8.10;;;3.35;;
69573;SDS011;62840;52.366;5.980;2023-07-22T00:24:16;8.03;;;2.53;;
69573;SDS011;62840;52.366;5.980;2023-07-22T00:26:42;6.47;;;2.45;;
69573;SDS011;62840;52.366;5.980;2023-07-22T00:29:07;6.47;;;2.60;;
69573;SDS011;62840;52.366;5.980;2023-07-22T00:31:33;6.63;;;2.70;;
69573;SDS011;62840;52.366;5.980;2023-07-22T00:33:59;7.10;;;3.07;;
69573;SDS011;62840;52.366;5.980;2023-07-22T00:36:25;7.95;;;2.72;;
69573;SDS011;62840;52.366;5.980;2023-07-22T00:38:53;6.80;;;3.10;;
69573;SDS011;62840;52.366;5.980;2023-07-22T00:41:19;6.13;;;2.57;;
69573;SDS011;62840;52.366;5.980;2023-07-22T00:43:45;7.07;;;2.53;;
69573;SDS011;62840;52.366;5.980;2023-07-22T00:46:10;7.83;;;2.50;;
69573;SDS011;62840;52.366;5.980;2023-07-22T00:48:36;6.95;;;3.17;;
69573;SDS011;62840;52.366;5.980;2023-07-22T00:51:04;7.90;;;3.28;;
69573;SDS011;62840;52.366;5.980;2023-07-22T00:53:30;7.28;;;3.20;;
69573;SDS011;62840;52.366;5.980;2023-07-22T00:55:58;6.75;;;2.60;;
69573;SDS011;62840;52.366;5.980;2023-07-22T00:58:24;6.47;;;2.60;;
69573;SDS011;62840;52.366;5.980;2023-07-22T01:00:50;6.38;;;2.67;;
69573;SDS011;62840;52.366;5.980;2023-07-22T01:03:16;6.07;;;2.67;;
69573;SDS011;62840;52.366;5.980;2023-07-22T01:05:42;6.78;;;2.90;;
69573;SDS011;62840;52.366;5.980;2023-07-22T01:08:08;7.55;;;2.95;;
69573;SDS011;62840;52.366;5.980;2023-07-22T01:10:34;7.05;;;2.72;;
69573;SDS011;62840;52.366;5.980;2023-07-22T01:13:02;7.00;;;2.73;;
69573;SDS011;62840;52.366;5.980;2023-07-22T01:15:28;5.65;;;2.85;;
69573;SDS011;62840;52.366;5.980;2023-07-22T01:17:54;6.47;;;2.25;;
69573;SDS011;62840;52.366;5.980;2023-07-22T01:20:20;6.20;;;2.60;;
69573;SDS011;62840;52.366;5.980;2023-07-22T01:22:52;7.25;;;2.88;;
69573;SDS011;62840;52.366;5.980;2023-07-22T01:25:19;6.00;;;2.40;;
69573;SDS011;62840;52.366;5.980;2023-07-22T01:27:45;7.07;;;2.83;;
69573;SDS011;62840;52.366;5.980;2023-07-22T01:30:11;5.78;;;2.65;;
69573;SDS011;62840;52.366;5.980;2023-07-22T01:32:37;6.30;;;2.87;;
69573;SDS011;62840;52.366;5.980;2023-07-22T01:35:03;6.40;;;3.03;;
69573;SDS011;62840;52.366;5.980;2023-07-22T01:37:30;6.97;;;3.38;;
69573;SDS011;62840;52.366;5.980;2023-07-22T01:39:58;8.63;;;3.30;;
69573;SDS011;62840;52.366;5.980;2023-07-22T01:42:24;6.85;;;3.15;;
69573;SDS011;62840;52.366;5.980;2023-07-22T01:44:50;7.30;;;3.22;;
69573;SDS011;62840;52.366;5.980;2023-07-22T04:51:00;10.73;;;4.43;;
69573;SDS011;62840;52.366;5.980;2023-07-22T04:53:26;8.85;;;4.00;;
69573;SDS011;62840;52.366;5.980;2023-07-22T04:55:52;9.03;;;3.93;;
69573;SDS011;62840;52.366;5.980;2023-07-22T04:58:17;10.00;;;4.10;;
69573;SDS011;62840;52.366;5.980;2023-07-22T05:00:43;9.43;;;3.97;;
69573;SDS011;62840;52.366;5.980;2023-07-22T05:03:09;10.00;;;4.20;;
69573;SDS011;62840;52.366;5.980;2023-07-22T05:05:35;10.47;;;5.00;;
69573;SDS011;62840;52.366;5.980;2023-07-22T05:08:03;10.77;;;4.55;;
69573;SDS011;62840;52.366;5.980;2023-07-22T05:10:29;11.13;;;4.43;;
69573;SDS011;62840;52.366;5.980;2023-07-22T05:12:55;10.37;;;4.43;;
69573;SDS011;62840;52.366;5.980;2023-07-22T05:15:20;10.98;;;3.83;;
69573;SDS011;62840;52.366;5.980;2023-07-22T05:17:46;9.23;;;3.87;;
69573;SDS011;62840;52.366;5.980;2023-07-22T05:20:12;8.05;;;4.25;;
69573;SDS011;62840;52.366;5.980;2023-07-22T05:22:37;10.50;;;4.70;;
69573;SDS011;62840;52.366;5.980;2023-07-22T05:25:07;9.30;;;3.95;;
69573;SDS011;62840;52.366;5.980;2023-07-22T05:27:34;8.63;;;3.55;;
69573;SDS011;62840;52.366;5.980;2023-07-22T05:30:00;9.38;;;3.85;;
69573;SDS011;62840;52.366;5.980;2023-07-22T05:32:27;8.77;;;3.90;;
69573;SDS011;62840;52.366;5.980;2023-07-22T05:34:53;9.77;;;4.00;;
69573;SDS011;62840;52.366;5.980;2023-07-22T05:37:19;10.17;;;4.53;;
69573;SDS011;62840;52.366;5.980;2023-07-22T05:39:45;9.52;;;3.97;;
69573;SDS011;62840;52.366;5.980;2023-07-22T05:42:13;10.27;;;4.37;;
69573;SDS011;62840;52.366;5.980;2023-07-22T05:44:39;10.45;;;4.43;;
69573;SDS011;62840;52.366;5.980;2023-07-22T05:47:05;10.75;;;4.35;;
69573;SDS011;62840;52.366;5.980;2023-07-22T05:49:31;12.13;;;5.10;;
69573;SDS011;62840;52.366;5.980;2023-07-22T05:51:56;14.98;;;5.57;;
69573;SDS011;62840;52.366;5.980;2023-07-22T05:54:22;13.00;;;5.22;;
69573;SDS011;62840;52.366;5.980;2023-07-22T05:56:48;12.73;;;5.15;;
69573;SDS011;62840;52.366;5.980;2023-07-22T05:59:16;12.60;;;5.35;;
69573;SDS011;62840;52.366;5.980;2023-07-22T06:01:42;14.83;;;6.00;;
69573;SDS011;62840;52.366;5.980;2023-07-22T06:04:08;13.57;;;5.57;;
69573;SDS011;62840;52.366;5.980;2023-07-22T06:06:34;11.77;;;4.97;;
69573;SDS011;62840;52.366;5.980;2023-07-22T06:09:00;12.32;;;4.82;;
69573;SDS011;62840;52.366;5.980;2023-07-22T06:11:26;12.85;;;5.22;;
69573;SDS011;62840;52.366;5.980;2023-07-22T06:13:52;14.13;;;6.35;;
69573;SDS011;62840;52.366;5.980;2023-07-22T06:16:20;12.57;;;5.37;;
69573;SDS011;62840;52.366;5.980;2023-07-22T06:18:46;14.18;;;5.85;;
69573;SDS011;62840;52.366;5.980;2023-07-22T06:21:12;12.37;;;5.50;;
69573;SDS011;62840;52.366;5.980;2023-07-22T06:23:37;16.58;;;5.63;;
69573;SDS011;62840;52.366;5.980;2023-07-22T06:26:03;12.80;;;5.60;;
69573;SDS011;62840;52.366;5.980;2023-07-22T06:28:29;13.90;;;5.93;;
69573;SDS011;62840;52.366;5.980;2023-07-22T06:30:55;13.18;;;5.20;;
69573;SDS011;62840;52.366;5.980;2023-07-22T06:33:23;14.63;;;5.50;;
69573;SDS011;62840;52.366;5.980;2023-07-22T06:35:49;12.27;;;5.72;;
69573;SDS011;62840;52.366;5.980;2023-07-22T06:38:14;11.03;;;5.20;;
69573;SDS011;62840;52.366;5.980;2023-07-22T06:40:40;12.55;;;5.07;;
69573;SDS011;62840;52.366;5.980;2023-07-22T06:43:06;13.17;;;5.37;;
69573;SDS011;62840;52.366;5.980;2023-07-22T06:45:32;12.13;;;5.10;;
69573;SDS011;62840;52.366;5.980;2023-07-22T06:47:58;13.35;;;5.90;;
69573;SDS011;62840;52.366;5.980;2023-07-22T06:50:26;13.10;;;5.32;;
69573;SDS011;62840;52.366;5.980;2023-07-22T06:52:52;12.65;;;5.60;;
69573;SDS011;62840;52.366;5.980;2023-07-22T06:55:18;14.35;;;5.22;;
69573;SDS011;62840;52.366;5.980;2023-07-22T06:57:44;12.07;;;5.23;;
69573;SDS011;62840;52.366;5.980;2023-07-22T07:00:09;10.90;;;4.88;;
69573;SDS011;62840;52.366;5.980;2023-07-22T07:02:36;14.70;;;5.22;;
69573;SDS011;62840;52.366;5.980;2023-07-22T07:05:02;12.97;;;5.83;;
69573;SDS011;62840;52.366;5.980;2023-07-22T07:07:30;12.70;;;5.50;;
69573;SDS011;62840;52.366;5.980;2023-07-22T07:09:56;10.45;;;4.78;;
69573;SDS011;62840;52.366;5.980;2023-07-22T07:12:22;12.20;;;4.50;;
69573;SDS011;62840;52.366;5.980;2023-07-22T07:14:49;12.27;;;4.40;;
69573;SDS011;62840;52.366;5.980;2023-07-22T07:17:15;13.52;;;5.25;;
69573;SDS011;62840;52.366;5.980;2023-07-22T07:19:41;12.15;;;4.72;;
69573;SDS011;62840;52.366;5.980;2023-07-22T07:22:06;14.40;;;4.90;;
69573;SDS011;62840;52.366;5.980;2023-07-22T07:24:35;11.00;;;5.18;;
69573;SDS011;62840;52.366;5.980;2023-07-22T07:27:01;11.63;;;5.00;;
69573;SDS011;62840;52.366;5.980;2023-07-22T07:29:26;10.87;;;4.93;;
69573;SDS011;62840;52.366;5.980;2023-07-22T07:31:52;13.25;;;4.95;;
69573;SDS011;62840;52.366;5.980;2023-07-22T07:34:18;9.03;;;4.00;;
69573;SDS011;62840;52.366;5.980;2023-07-22T07:36:43;9.80;;;4.38;;
69573;SDS011;62840;52.366;5.980;2023-07-22T07:39:09;9.03;;;4.20;;
69573;SDS011;62840;52.366;5.980;2023-07-22T07:41:37;11.23;;;4.35;;
69573;SDS011;62840;52.366;5.980;2023-07-22T07:44:03;9.77;;;4.00;;
69573;SDS011;62840;52.366;5.980;2023-07-22T07:46:29;11.82;;;4.30;;
69573;SDS011;62840;52.366;5.980;2023-07-22T07:48:55;9.80;;;4.18;;
69573;SDS011;62840;52.366;5.980;2023-07-22T07:51:23;7.53;;;3.72;;
69573;SDS011;62840;52.366;5.980;2023-07-22T07:53:50;8.07;;;3.80;;
69573;SDS011;62840;52.366;5.980;2023-07-22T07:56:16;9.60;;;3.88;;
69573;SDS011;62840;52.366;5.980;2023-07-22T07:58:47;11.20;;;4.25;;
69573;SDS011;62840;52.366;5.980;2023-07-22T08:01:15;9.63;;;3.58;;
69573;SDS011;62840;52.366;5.980;2023-07-22T08:03:42;7.88;;;3.75;;
69573;SDS011;62840;52.366;5.980;2023-07-22T08:06:08;8.43;;;3.63;;
69573;SDS011;62840;52.366;5.980;2023-07-22T08:08:35;9.13;;;4.00;;
69573;SDS011;62840;52.366;5.980;2023-07-22T08:11:02;8.85;;;3.88;;
69573;SDS011;62840;52.366;5.980;2023-07-22T08:13:30;10.35;;;4.68;;
69573;SDS011;62840;52.366;5.980;2023-07-22T08:15:59;11.20;;;4.05;;
69573;SDS011;62840;52.366;5.980;2023-07-22T08:18:26;10.80;;;3.80;;
69573;SDS011;62840;52.366;5.980;2023-07-22T08:20:51;10.52;;;4.45;;
69573;SDS011;62840;52.366;5.980;2023-07-22T08:23:18;8.60;;;4.00;;
69573;SDS011;62840;52.366;5.980;2023-07-22T08:25:44;10.80;;;4.55;;
69573;SDS011;62840;52.366;5.980;2023-07-22T08:28:10;11.27;;;4.82;;
69573;SDS011;62840;52.366;5.980;2023-07-22T08:30:36;11.70;;;4.30;;
69573;SDS011;62840;52.366;5.980;2023-07-22T08:33:04;10.80;;;4.40;;
69573;SDS011;62840;52.366;5.980;2023-07-22T08:35:30;9.70;;;4.57;;
69573;SDS011;62840;52.366;5.980;2023-07-22T08:37:56;9.18;;;5.18;;
69573;SDS011;62840;52.366;5.980;2023-07-22T08:40:21;9.03;;;3.97;;
69573;SDS011;62840;52.366;5.980;2023-07-22T08:42:47;7.82;;;3.97;;
69573;SDS011;62840;52.366;5.980;2023-07-22T08:45:14;10.05;;;4.07;;
69573;SDS011;62840;52.366;5.980;2023-07-22T08:47:44;7.70;;;4.07;;
69573;SDS011;62840;52.366;5.980;2023-07-22T08:50:16;10.02;;;4.50;;
69573;SDS011;62840;52.366;5.980;2023-07-22T08:52:46;7.78;;;3.88;;
69573;SDS011;62840;52.366;5.980;2023-07-22T08:55:14;7.47;;;3.70;;
69573;SDS011;62840;52.366;5.980;2023-07-22T08:57:40;11.02;;;4.22;;
69573;SDS011;62840;52.366;5.980;2023-07-22T09:00:07;8.93;;;4.05;;
69573;SDS011;62840;52.366;5.980;2023-07-22T09:02:34;9.02;;;3.38;;
69573;SDS011;62840;52.366;5.980;2023-07-22T09:05:01;8.68;;;3.95;;
69573;SDS011;62840;52.366;5.980;2023-07-22T09:07:30;6.90;;;3.70;;
69573;SDS011;62840;52.366;5.980;2023-07-22T09:09:56;8.85;;;3.58;;
69573;SDS011;62840;52.366;5.980;2023-07-22T09:12:23;8.32;;;3.33;;
69573;SDS011;62840;52.366;5.980;2023-07-22T09:14:50;8.90;;;3.45;;
69573;SDS011;62840;52.366;5.980;2023-07-22T09:17:17;9.18;;;3.50;;
69573;SDS011;62840;52.366;5.980;2023-07-22T09:19:43;9.70;;;3.78;;
69573;SDS011;62840;52.366;5.980;2023-07-22T09:22:08;7.13;;;3.03;;
69573;SDS011;62840;52.366;5.980;2023-07-22T09:24:37;7.90;;;3.00;;
69573;SDS011;62840;52.366;5.980;2023-07-22T09:27:02;6.47;;;3.00;;
69573;SDS011;62840;52.366;5.980;2023-07-22T09:29:32;6.63;;;3.22;;
69573;SDS011;62840;52.366;5.980;2023-07-22T09:32:00;6.93;;;3.15;;
69573;SDS011;62840;52.366;5.980;2023-07-22T09:34:27;6.40;;;3.10;;
69573;SDS011;62840;52.366;5.980;2023-07-22T09:36:53;6.15;;;3.03;;
69573;SDS011;62840;52.366;5.980;2023-07-22T09:39:20;7.47;;;3.72;;
69573;SDS011;62840;52.366;5.980;2023-07-22T09:41:49;8.00;;;3.65;;
69573;SDS011;62840;52.366;5.980;2023-07-22T09:44:15;6.07;;;2.70;;
69573;SDS011;62840;52.366;5.980;2023-07-22T09:46:41;7.13;;;3.35;;
69573;SDS011;62840;52.366;5.980;2023-07-22T09:49:12;7.07;;;3.40;;
69573;SDS011;62840;52.366;5.980;2023-07-22T09:51:38;10.10;;;3.80;;
69573;SDS011;62840;52.366;5.980;2023-07-22T09:54:05;7.13;;;3.33;;
69573;SDS011;62840;52.366;5.980;2023-07-22T09:56:33;6.45;;;3.10;;
69573;SDS011;62840;52.366;5.980;2023-07-22T09:59:12;6.70;;;3.20;;
69573;SDS011;62840;52.366;5.980;2023-07-22T10:01:39;6.35;;;3.25;;
69573;SDS011;62840;52.366;5.980;2023-07-22T10:04:06;6.28;;;3.40;;
69573;SDS011;62840;52.366;5.980;2023-07-22T10:06:33;8.40;;;3.55;;
69573;SDS011;62840;52.366;5.980;2023-07-22T10:08:59;7.72;;;3.33;;
69573;SDS011;62840;52.366;5.980;2023-07-22T10:11:30;8.10;;;3.00;;
69573;SDS011;62840;52.366;5.980;2023-07-22T10:13:55;7.10;;;3.25;;
69573;SDS011;62840;52.366;5.980;2023-07-22T10:16:24;6.50;;;3.45;;
69573;SDS011;62840;52.366;5.980;2023-07-22T10:18:50;7.43;;;3.50;;
69573;SDS011;62840;52.366;5.980;2023-07-22T10:21:16;6.97;;;3.40;;
69573;SDS011;62840;52.366;5.980;2023-07-22T10:23:43;6.55;;;3.70;;
69573;SDS011;62840;52.366;5.980;2023-07-22T10:26:12;7.72;;;3.55;;
69573;SDS011;62840;52.366;5.980;2023-07-22T10:28:39;7.75;;;3.20;;
69573;SDS011;62840;52.366;5.980;2023-07-22T10:31:06;12.47;;;4.10;;
69573;SDS011;62840;52.366;5.980;2023-07-22T10:33:35;7.38;;;3.30;;
69573;SDS011;62840;52.366;5.980;2023-07-22T10:36:02;6.78;;;3.30;;
69573;SDS011;62840;52.366;5.980;2023-07-22T10:38:31;8.13;;;3.30;;
69573;SDS011;62840;52.366;5.980;2023-07-22T10:40:58;9.90;;;3.60;;
69573;SDS011;62840;52.366;5.980;2023-07-22T10:43:25;7.53;;;3.35;;
69573;SDS011;62840;52.366;5.980;2023-07-22T10:45:56;7.18;;;3.60;;
69573;SDS011;62840;52.366;5.980;2023-07-22T10:48:25;6.85;;;2.75;;
69573;SDS011;62840;52.366;5.980;2023-07-22T10:50:57;5.70;;;3.38;;
69573;SDS011;62840;52.366;5.980;2023-07-22T10:53:30;7.03;;;2.97;;
69573;SDS011;62840;52.366;5.980;2023-07-22T10:56:02;7.07;;;2.80;;
69573;SDS011;62840;52.366;5.980;2023-07-22T10:58:30;7.80;;;3.13;;
69573;SDS011;62840;52.366;5.980;2023-07-22T11:01:00;7.35;;;2.92;;
69573;SDS011;62840;52.366;5.980;2023-07-22T11:06:35;5.30;;;2.88;;
69573;SDS011;62840;52.366;5.980;2023-07-22T11:09:02;6.30;;;2.90;;
69573;SDS011;62840;52.366;5.980;2023-07-22T11:11:38;7.75;;;2.95;;
69573;SDS011;62840;52.366;5.980;2023-07-22T11:16:51;6.80;;;2.90;;
69573;SDS011;62840;52.366;5.980;2023-07-22T11:19:18;7.82;;;3.78;;
69573;SDS011;62840;52.366;5.980;2023-07-22T11:21:51;7.05;;;3.20;;
69573;SDS011;62840;52.366;5.980;2023-07-22T11:24:19;8.55;;;3.53;;
69573;SDS011;62840;52.366;5.980;2023-07-22T11:26:46;8.32;;;3.40;;
69573;SDS011;62840;52.366;5.980;2023-07-22T11:29:13;6.75;;;4.07;;
69573;SDS011;62840;52.366;5.980;2023-07-22T11:31:41;7.03;;;4.28;;
69573;SDS011;62840;52.366;5.980;2023-07-22T11:34:09;8.82;;;3.92;;
69573;SDS011;62840;52.366;5.980;2023-07-22T11:36:35;10.13;;;4.10;;
69573;SDS011;62840;52.366;5.980;2023-07-22T11:39:04;6.50;;;4.03;;
69573;SDS011;62840;52.366;5.980;2023-07-22T11:41:33;8.20;;;4.18;;
69573;SDS011;62840;52.366;5.980;2023-07-22T11:44:00;10.57;;;4.32;;
69573;SDS011;62840;52.366;5.980;2023-07-22T11:46:28;8.25;;;4.50;;
69573;SDS011;62840;52.366;5.980;2023-07-22T11:48:54;11.27;;;4.30;;
69573;SDS011;62840;52.366;5.980;2023-07-22T11:51:22;8.57;;;4.70;;
69573;SDS011;62840;52.366;5.980;2023-07-22T11:53:49;7.32;;;3.95;;
69573;SDS011;62840;52.366;5.980;2023-07-22T11:56:20;9.45;;;4.50;;
69573;SDS011;62840;52.366;5.980;2023-07-22T11:58:48;7.20;;;3.92;;
69573;SDS011;62840;52.366;5.980;2023-07-22T12:01:15;7.10;;;4.22;;
69573;SDS011;62840;52.366;5.980;2023-07-22T12:03:41;9.55;;;4.85;;
69573;SDS011;62840;52.366;5.980;2023-07-22T12:06:07;11.52;;;5.55;;
69573;SDS011;62840;52.366;5.980;2023-07-22T12:08:33;17.75;;;5.53;;
69573;SDS011;62840;52.366;5.980;2023-07-22T12:11:00;12.43;;;5.80;;
69573;SDS011;62840;52.366;5.980;2023-07-22T12:13:28;10.88;;;5.78;;
69573;SDS011;62840;52.366;5.980;2023-07-22T12:16:00;9.32;;;5.65;;
69573;SDS011;62840;52.366;5.980;2023-07-22T12:18:26;9.18;;;5.75;;
69573;SDS011;62840;52.366;5.980;2023-07-22T12:20:52;9.53;;;5.40;;
69573;SDS011;62840;52.366;5.980;2023-07-22T12:23:18;9.15;;;5.45;;
69573;SDS011;62840;52.366;5.980;2023-07-22T12:25:44;8.77;;;4.63;;
69573;SDS011;62840;52.366;5.980;2023-07-22T12:28:09;8.43;;;5.07;;
69573;SDS011;62840;52.366;5.980;2023-07-22T12:30:38;6.80;;;4.75;;
69573;SDS011;62840;52.366;5.980;2023-07-22T12:33:03;7.37;;;4.97;;
69573;SDS011;62840;52.366;5.980;2023-07-22T12:35:29;8.38;;;4.65;;
69573;SDS011;62840;52.366;5.980;2023-07-22T12:37:55;7.47;;;4.63;;
69573;SDS011;62840;52.366;5.980;2023-07-22T12:40:21;7.80;;;4.82;;
69573;SDS011;62840;52.366;5.980;2023-07-22T12:42:46;8.17;;;4.53;;
69573;SDS011;62840;52.366;5.980;2023-07-22T12:45:12;6.43;;;4.80;;
69573;SDS011;62840;52.366;5.980;2023-07-22T12:47:41;8.07;;;5.03;;
69573;SDS011;62840;52.366;5.980;2023-07-22T12:50:07;9.30;;;5.68;;
69573;SDS011;62840;52.366;5.980;2023-07-22T12:52:33;8.07;;;5.65;;
69573;SDS011;62840;52.366;5.980;2023-07-22T12:54:59;8.32;;;5.40;;
69573;SDS011;62840;52.366;5.980;2023-07-22T12:57:25;8.97;;;5.17;;
69573;SDS011;62840;52.366;5.980;2023-07-22T12:59:50;9.00;;;5.75;;
69573;SDS011;62840;52.366;5.980;2023-07-22T13:02:16;8.87;;;5.70;;
69573;SDS011;62840;52.366;5.980;2023-07-22T13:04:45;8.95;;;5.55;;
69573;SDS011;62840;52.366;5.980;2023-07-22T13:07:10;8.20;;;5.50;;
69573;SDS011;62840;52.366;5.980;2023-07-22T13:09:36;9.82;;;6.10;;
69573;SDS011;62840;52.366;5.980;2023-07-22T13:12:02;8.33;;;5.33;;
69573;SDS011;62840;52.366;5.980;2023-07-22T13:14:29;8.57;;;5.75;;
69573;SDS011;62840;52.366;5.980;2023-07-22T13:16:55;9.00;;;5.97;;
69573;SDS011;62840;52.366;5.980;2023-07-22T13:19:20;8.63;;;5.50;;
69573;SDS011;62840;52.366;5.980;2023-07-22T13:21:49;9.07;;;5.80;;
69573;SDS011;62840;52.366;5.980;2023-07-22T13:24:15;9.07;;;5.55;;
69573;SDS011;62840;52.366;5.980;2023-07-22T13:26:40;9.90;;;6.25;;
69573;SDS011;62840;52.366;5.980;2023-07-22T13:29:06;8.93;;;5.63;;
69573;SDS011;62840;52.366;5.980;2023-07-22T13:31:33;8.63;;;5.32;;
69573;SDS011;62840;52.366;5.980;2023-07-22T13:33:58;9.77;;;5.80;;
69573;SDS011;62840;52.366;5.980;2023-07-22T13:36:24;8.45;;;5.53;;
69573;SDS011;62840;52.366;5.980;2023-07-22T13:38:53;9.43;;;5.72;;
69573;SDS011;62840;52.366;5.980;2023-07-22T13:41:19;8.57;;;5.50;;
69573;SDS011;62840;52.366;5.980;2023-07-22T13:43:44;9.25;;;5.45;;
69573;SDS011;62840;52.366;5.980;2023-07-22T13:46:10;8.20;;;5.40;;
69573;SDS011;62840;52.366;5.980;2023-07-22T13:48:36;9.60;;;5.73;;
69573;SDS011;62840;52.366;5.980;2023-07-22T13:51:02;9.38;;;5.97;;
69573;SDS011;62840;52.366;5.980;2023-07-22T13:53:27;9.33;;;6.27;;
69573;SDS011;62840;52.366;5.980;2023-07-22T13:55:56;8.93;;;6.05;;
69573;SDS011;62840;52.366;5.980;2023-07-22T13:58:21;9.20;;;5.90;;
69573;SDS011;62840;52.366;5.980;2023-07-22T14:00:47;9.03;;;6.00;;
69573;SDS011;62840;52.366;5.980;2023-07-22T14:03:13;9.10;;;5.88;;
69573;SDS011;62840;52.366;5.980;2023-07-22T14:05:39;10.82;;;6.10;;
69573;SDS011;62840;52.366;5.980;2023-07-22T14:08:05;9.57;;;5.90;;
69573;SDS011;62840;52.366;5.980;2023-07-22T14:10:31;9.43;;;6.10;;
69573;SDS011;62840;52.366;5.980;2023-07-22T14:12:59;10.00;;;5.78;;
69573;SDS011;62840;52.366;5.980;2023-07-22T14:15:25;10.30;;;5.93;;
69573;SDS011;62840;52.366;5.980;2023-07-22T14:17:50;9.77;;;5.83;;
69573;SDS011;62840;52.366;5.980;2023-07-22T14:20:16;10.90;;;6.07;;
69573;SDS011;62840;52.366;5.980;2023-07-22T14:22:42;9.67;;;6.10;;
69573;SDS011;62840;52.366;5.980;2023-07-22T14:25:08;9.45;;;5.85;;
69573;SDS011;62840;52.366;5.980;2023-07-22T14:27:34;10.98;;;6.32;;
69573;SDS011;62840;52.366;5.980;2023-07-22T14:30:02;10.63;;;6.67;;
69573;SDS011;62840;52.366;5.980;2023-07-22T14:32:29;9.25;;;6.10;;
69573;SDS011;62840;52.366;5.980;2023-07-22T14:34:55;10.13;;;6.32;;
69573;SDS011;62840;52.366;5.980;2023-07-22T14:37:20;8.73;;;5.67;;
69573;SDS011;62840;52.366;5.980;2023-07-22T14:39:46;9.57;;;5.47;;
69573;SDS011;62840;52.366;5.980;2023-07-22T14:42:12;9.43;;;5.80;;
69573;SDS011;62840;52.366;5.980;2023-07-22T14:44:38;9.93;;;5.60;;
69573;SDS011;62840;52.366;5.980;2023-07-22T14:47:06;8.60;;;5.37;;
69573;SDS011;62840;52.366;5.980;2023-07-22T14:49:32;9.65;;;5.13;;
69573;SDS011;62840;52.366;5.980;2023-07-22T14:51:58;8.13;;;5.00;;
69573;SDS011;62840;52.366;5.980;2023-07-22T14:54:23;8.07;;;5.30;;
69573;SDS011;62840;52.366;5.980;2023-07-22T14:56:49;8.85;;;4.60;;
69573;SDS011;62840;52.366;5.980;2023-07-22T14:59:15;8.57;;;4.67;;
69573;SDS011;62840;52.366;5.980;2023-07-22T15:01:41;7.43;;;4.75;;
69573;SDS011;62840;52.366;5.980;2023-07-22T15:04:10;7.97;;;4.05;;
69573;SDS011;62840;52.366;5.980;2023-07-22T15:06:36;8.07;;;4.15;;
69573;SDS011;62840;52.366;5.980;2023-07-22T15:09:02;7.00;;;4.07;;
69573;SDS011;62840;52.366;5.980;2023-07-22T15:11:29;7.95;;;4.43;;
69573;SDS011;62840;52.366;5.980;2023-07-22T15:13:55;6.38;;;4.18;;
69573;SDS011;62840;52.366;5.980;2023-07-22T15:16:21;7.43;;;3.80;;
69573;SDS011;62840;52.366;5.980;2023-07-22T15:18:46;8.27;;;4.35;;
69573;SDS011;62840;52.366;5.980;2023-07-22T15:21:15;7.27;;;4.07;;
69573;SDS011;62840;52.366;5.980;2023-07-22T15:23:40;7.20;;;4.10;;
69573;SDS011;62840;52.366;5.980;2023-07-22T15:26:06;7.88;;;4.18;;
69573;SDS011;62840;52.366;5.980;2023-07-22T15:28:32;7.63;;;4.07;;
69573;SDS011;62840;52.366;5.980;2023-07-22T15:30:58;10.07;;;5.13;;
69573;SDS011;62840;52.366;5.980;2023-07-22T15:33:23;6.87;;;4.40;;
69573;SDS011;62840;52.366;5.980;2023-07-22T15:35:49;6.50;;;4.38;;
69573;SDS011;62840;52.366;5.980;2023-07-22T15:38:17;6.67;;;3.90;;
69573;SDS011;62840;52.366;5.980;2023-07-22T15:40:43;7.95;;;4.25;;
69573;SDS011;62840;52.366;5.980;2023-07-22T15:43:09;7.30;;;4.10;;
69573;SDS011;62840;52.366;5.980;2023-07-22T15:45:35;7.67;;;4.47;;
69573;SDS011;62840;52.366;5.980;2023-07-22T15:48:00;6.70;;;3.83;;
69573;SDS011;62840;52.366;5.980;2023-07-22T15:50:26;8.23;;;4.10;;
69573;SDS011;62840;52.366;5.980;2023-07-22T15:52:52;6.32;;;3.80;;
69573;SDS011;62840;52.366;5.980;2023-07-22T15:55:20;8.63;;;4.13;;
69573;SDS011;62840;52.366;5.980;2023-07-22T15:57:46;7.95;;;4.22;;
69573;SDS011;62840;52.366;5.980;2023-07-22T16:00:12;7.55;;;4.18;;
69573;SDS011;62840;52.366;5.980;2023-07-22T16:02:38;7.37;;;4.30;;
69573;SDS011;62840;52.366;5.980;2023-07-22T16:05:05;7.03;;;4.35;;
69573;SDS011;62840;52.366;5.980;2023-07-22T16:07:32;7.15;;;3.97;;
69573;SDS011;62840;52.366;5.980;2023-07-22T16:09:58;6.00;;;4.00;;
69573;SDS011;62840;52.366;5.980;2023-07-22T16:12:27;7.80;;;4.20;;
69573;SDS011;62840;52.366;5.980;2023-07-22T16:14:52;7.00;;;4.10;;
69573;SDS011;62840;52.366;5.980;2023-07-22T16:17:19;7.57;;;4.07;;
69573;SDS011;62840;52.366;5.980;2023-07-22T16:19:45;7.60;;;3.97;;
69573;SDS011;62840;52.366;5.980;2023-07-22T16:22:11;8.57;;;4.70;;
69573;SDS011;62840;52.366;5.980;2023-07-22T16:24:36;7.43;;;4.28;;
69573;SDS011;62840;52.366;5.980;2023-07-22T16:27:02;7.40;;;3.73;;
69573;SDS011;62840;52.366;5.980;2023-07-22T16:29:32;6.90;;;4.40;;
69573;SDS011;62840;52.366;5.980;2023-07-22T16:31:58;6.63;;;4.07;;
69573;SDS011;62840;52.366;5.980;2023-07-22T16:34:23;6.83;;;3.60;;
69573;SDS011;62840;52.366;5.980;2023-07-22T16:36:49;7.10;;;3.67;;
69573;SDS011;62840;52.366;5.980;2023-07-22T16:39:15;6.57;;;3.70;;
69573;SDS011;62840;52.366;5.980;2023-07-22T16:41:41;8.55;;;3.53;;
69573;SDS011;62840;52.366;5.980;2023-07-22T16:44:06;6.70;;;3.27;;
69573;SDS011;62840;52.366;5.980;2023-07-22T16:46:35;6.25;;;3.28;;
69573;SDS011;62840;52.366;5.980;2023-07-22T16:49:00;7.40;;;3.70;;
69573;SDS011;62840;52.366;5.980;2023-07-22T16:51:26;6.65;;;3.80;;
69573;SDS011;62840;52.366;5.980;2023-07-22T16:53:52;6.38;;;3.50;;
69573;SDS011;62840;52.366;5.980;2023-07-22T16:56:18;7.20;;;3.00;;
69573;SDS011;62840;52.366;5.980;2023-07-22T16:58:43;5.80;;;3.55;;
69573;SDS011;62840;52.366;5.980;2023-07-22T17:01:09;5.60;;;4.00;;
69573;SDS011;62840;52.366;5.980;2023-07-22T17:03:38;6.03;;;3.37;;
69573;SDS011;62840;52.366;5.980;2023-07-22T17:06:04;5.90;;;3.88;;
69573;SDS011;62840;52.366;5.980;2023-07-22T17:08:29;6.28;;;3.63;;
69573;SDS011;62840;52.366;5.980;2023-07-22T17:10:55;7.37;;;3.43;;
69573;SDS011;62840;52.366;5.980;2023-07-22T17:13:21;6.65;;;3.38;;
69573;SDS011;62840;52.366;5.980;2023-07-22T17:15:47;5.70;;;3.20;;
69573;SDS011;62840;52.366;5.980;2023-07-22T17:18:12;7.30;;;3.60;;
69573;SDS011;62840;52.366;5.980;2023-07-22T17:20:41;5.82;;;3.53;;
69573;SDS011;62840;52.366;5.980;2023-07-22T17:23:07;5.80;;;3.42;;
69573;SDS011;62840;52.366;5.980;2023-07-22T17:25:33;6.43;;;3.40;;
69573;SDS011;62840;52.366;5.980;2023-07-22T17:27:59;6.63;;;3.75;;
69573;SDS011;62840;52.366;5.980;2023-07-22T17:30:24;6.33;;;3.30;;
69573;SDS011;62840;52.366;5.980;2023-07-22T17:32:50;5.97;;;3.63;;
69573;SDS011;62840;52.366;5.980;2023-07-22T17:35:16;5.80;;;3.40;;
69573;SDS011;62840;52.366;5.980;2023-07-22T17:37:45;6.50;;;3.53;;
69573;SDS011;62840;52.366;5.980;2023-07-22T17:40:11;7.53;;;4.43;;
69573;SDS011;62840;52.366;5.980;2023-07-22T17:42:38;7.50;;;3.63;;
69573;SDS011;62840;52.366;5.980;2023-07-22T17:45:04;5.18;;;3.40;;
69573;SDS011;62840;52.366;5.980;2023-07-22T17:47:32;6.38;;;3.53;;
69573;SDS011;62840;52.366;5.980;2023-07-22T17:49:57;5.78;;;3.30;;
69573;SDS011;62840;52.366;5.980;2023-07-22T17:52:23;6.17;;;3.57;;